Mahajanga, Madagascar

82°F / 28°C
Partly Cloudy
Heat Index: 92°F / 34°C
Humidity: 89%
Dew Point: 79°F / 26°C
Wind: West at 5 mph / 7 km/h
Pressure: 29.89 in / 1012 hPa (Steady)
Visibility: 6.2 miles / 10.0 kilometers
Clouds: (FEW) : 2000 ft / 609 m
Yesterday's Maximum: 90°F / 32°C
Yesterday's Minimum: 77°F / 25°C approx.
Yesterday's Cooling Degree Days: 18 approx.
UV: 0 out of 16
Sunrise:5:52 AM EAT
Sunset:6:23 PM EAT
Moon Rise:8:08 PM EAT
Moon Set:7:28 AM EAT
Moon Phase Waning Gibbous
NOAA Weather Radio
No local feed.
METAR FMNM 211900Z 28004KT 9999 VCTS FEW020CB 28/26 Q1012 NOSIG
As of: 10:00 PM EAT on February 21, 2019
Observed at: Majunga, Madagascar

View Station's History

Local Satellite

Current Satellite Forecast
Region Default Local
No Yes

View Full Screen WunderMap

Forecast

Current Satellite Forecast
Wednesday
. High: 91° F. / 32° C.

. High: 93° F. / 34° C.

Features

Weather Apps

WunderRadio

Weather Underground Apps
Check out our wide variety of mobile and setup applications.

Weather Underground Applications

Top of Page

© Copyright 2019
The Weather Company, LLC